Time;durP1;ratioP1;P1;durP2;ratioP2;P2;SDS_P1;SDS_P2;PMS_P1;PMS_P2;Temp;Humidity;BMP_temperature;BMP_pressure;BME280_temperature;BME280_humidity;BME280_pressure;Samples;Min_cycle;Max_cycle;Signal;HPM_P1;HPM_P2
2022/10/24 00:00:12;;;;;;;16.10;3.00;;;;;;;18.92;81.06;97790.72;5190546;22;20577;-89
2022/10/24 00:02:17;;;;;;;12.43;3.40;;;;;;;18.87;83.00;97797.50;5190838;22;20592;-90
2022/10/24 00:04:20;;;;;;;11.00;3.50;;;;;;;18.80;82.75;97791.22;5217286;22;21414;-90
2022/10/24 00:06:23;;;;;;;13.30;3.80;;;;;;;18.74;83.31;97798.97;5218541;22;20634;-90
2022/10/24 00:08:26;;;;;;;10.20;3.53;;;;;;;18.66;84.51;97796.31;5190585;22;21359;-90
2022/10/24 00:10:29;;;;;;;8.90;3.97;;;;;;;18.58;85.45;97797.13;5190892;22;20608;-90
2022/10/24 00:12:32;;;;;;;11.60;4.87;;;;;;;18.50;85.64;97798.91;5191256;22;20631;-91
2022/10/24 00:14:36;;;;;;;12.43;4.20;;;;;;;18.41;86.65;97800.66;5189969;22;20644;-90
2022/10/24 00:16:39;;;;;;;8.40;3.53;;;;;;;18.35;86.71;97789.94;5218413;22;20555;-90
2022/10/24 00:18:43;;;;;;;10.47;3.60;;;;;;;18.32;86.66;97800.00;5190557;22;20625;-91
2022/10/24 00:20:46;;;;;;;12.00;4.10;;;;;;;18.24;86.71;97789.41;5164612;23;21124;-91
2022/10/24 00:22:49;;;;;;;8.13;3.17;;;;;;;18.15;86.67;97785.88;5163486;23;20642;-90
2022/10/24 00:24:52;;;;;;;8.27;3.23;;;;;;;18.12;86.98;97794.09;5189814;22;20561;-91
2022/10/24 00:26:55;;;;;;;7.33;2.90;;;;;;;18.07;86.60;97795.53;5216390;22;20579;-90
2022/10/24 00:28:58;;;;;;;13.10;6.73;;;;;;;18.02;86.56;97788.09;5189123;22;20950;-90
2022/10/24 00:31:03;;;;;;;15.67;6.90;;;;;;;17.97;86.52;97789.56;5189006;22;20560;-89
2022/10/24 00:33:06;;;;;;;11.80;3.37;;;;;;;17.94;87.53;97789.88;5164045;23;20617;-91
2022/10/24 00:35:11;;;;;;;7.87;3.33;;;;;;;17.87;87.13;97788.84;5187699;22;20569;-89
2022/10/24 00:37:14;;;;;;;13.87;4.07;;;;;;;17.84;87.10;97794.44;5214600;22;20571;-90
2022/10/24 00:39:17;;;;;;;12.83;4.50;;;;;;;17.88;87.38;97794.97;5189823;22;20583;-90
2022/10/24 00:41:23;;;;;;;8.47;3.63;;;;;;;17.87;86.77;97790.66;5189491;22;20571;-90
2022/10/24 00:43:26;;;;;;;10.47;3.27;;;;;;;17.81;86.81;97788.66;5216615;22;21113;-91
2022/10/24 00:45:40;;;;;;;10.40;3.20;;;;;;;17.77;87.22;97792.56;5216920;22;20570;-90
2022/10/24 00:47:43;;;;;;;11.33;3.30;;;;;;;17.75;88.53;97794.56;5216601;22;20996;-91
2022/10/24 00:49:50;;;;;;;8.23;2.90;;;;;;;17.72;88.27;97806.22;5164212;23;20589;-89
2022/10/24 00:51:59;;;;;;;10.10;3.60;;;;;;;17.68;88.81;97799.63;5189701;22;20580;-91
2022/10/24 00:54:05;;;;;;;12.17;4.00;;;;;;;17.63;89.46;97804.53;5163347;23;20626;-91
2022/10/24 00:56:08;;;;;;;12.90;4.20;;;;;;;17.59;89.78;97805.84;5216366;22;21069;-91
2022/10/24 00:58:11;;;;;;;9.70;3.73;;;;;;;17.54;90.00;97802.00;5188746;22;20613;-91
2022/10/24 01:00:18;;;;;;;10.90;3.53;;;;;;;17.48;90.24;97802.59;5189615;22;20560;-90
2022/10/24 01:02:22;;;;;;;14.13;3.97;;;;;;;17.43;90.99;97799.63;5164688;22;20978;-90
2022/10/24 01:04:25;;;;;;;7.93;3.73;;;;;;;17.38;91.38;97807.16;5188465;22;20950;-90
2022/10/24 01:06:37;;;;;;;11.20;3.87;;;;;;;17.35;91.57;97811.91;5190399;22;20902;-90
2022/10/24 01:08:46;;;;;;;15.13;3.80;;;;;;;17.32;91.54;97809.56;5189284;22;20606;-89
2022/10/24 01:10:57;;;;;;;11.80;3.53;;;;;;;17.31;91.97;97803.47;5163303;23;21121;-89
2022/10/24 01:13:09;;;;;;;16.67;3.60;;;;;;;17.29;92.01;97809.88;5189940;22;20601;-91
2022/10/24 01:15:20;;;;;;;7.63;3.43;;;;;;;17.27;91.95;97798.66;5163890;23;20604;-90
2022/10/24 01:17:27;;;;;;;7.67;2.87;;;;;;;17.22;91.93;97801.75;5217096;22;20582;-90
2022/10/24 01:19:48;;;;;;;12.70;3.03;;;;;;;17.19;92.02;97795.94;5189393;22;20662;-90
2022/10/24 01:21:55;;;;;;;9.80;3.33;;;;;;;17.14;91.60;97796.38;5163922;23;20658;-90
2022/10/24 01:24:10;;;;;;;10.80;3.23;;;;;;;17.11;92.64;97790.59;5163982;23;20584;-90
2022/10/24 01:26:31;;;;;;;12.97;3.13;;;;;;;17.07;92.43;97791.88;5216345;22;20963;-90
2022/10/24 01:28:40;;;;;;;9.30;3.37;;;;;;;17.02;92.60;97786.25;5163501;23;20573;-90
2022/10/24 01:30:47;;;;;;;10.37;3.40;;;;;;;17.01;92.46;97798.56;5164423;23;20607;-89
2022/10/24 01:32:56;;;;;;;10.33;3.57;;;;;;;16.97;92.64;97796.38;5189677;22;20579;-91
2022/10/24 01:35:03;;;;;;;8.33;2.80;;;;;;;16.94;93.59;97804.59;5188892;22;20996;-90
2022/10/24 01:37:09;;;;;;;10.57;3.37;;;;;;;16.90;93.08;97799.78;5190301;22;20610;-90
2022/10/24 01:39:16;;;;;;;12.23;2.80;;;;;;;16.88;93.05;97794.66;5188496;22;20686;-91
2022/10/24 01:41:21;;;;;;;8.67;2.80;;;;;;;16.83;93.29;97783.75;5216321;22;20631;-90
2022/10/24 01:43:27;;;;;;;8.97;3.10;;;;;;;16.80;93.42;97781.41;5164332;23;20547;-90
2022/10/24 01:45:34;;;;;;;11.83;2.70;;;;;;;16.79;93.62;97778.94;5188848;22;20595;-91
2022/10/24 01:47:40;;;;;;;8.50;2.77;;;;;;;16.78;93.48;97786.00;5216332;22;20559;-91
2022/10/24 01:49:48;;;;;;;11.13;2.90;;;;;;;16.78;93.53;97786.00;5163392;23;20576;-90
2022/10/24 01:51:53;;;;;;;8.30;3.03;;;;;;;16.79;94.06;97786.84;5188986;22;20622;-91
2022/10/24 01:53:56;;;;;;;11.10;3.23;;;;;;;16.77;93.85;97786.97;5162921;23;20632;-90
2022/10/24 01:56:00;;;;;;;8.63;2.60;;;;;;;16.75;93.65;97786.31;5189491;22;21340;-90
2022/10/24 01:58:03;;;;;;;8.10;3.10;;;;;;;16.71;94.48;97795.47;5164142;23;21143;-90
2022/10/24 02:00:09;;;;;;;6.50;2.97;;;;;;;16.70;94.09;97790.34;5162932;23;21017;-90
2022/10/24 02:02:18;;;;;;;9.20;2.80;;;;;;;16.67;94.54;97793.28;5163936;23;21188;-90
2022/10/24 02:04:23;;;;;;;13.23;3.83;;;;;;;16.64;95.22;97788.31;5188939;22;20590;-90
2022/10/24 02:06:29;;;;;;;14.10;3.07;;;;;;;16.61;94.80;97784.19;5163478;23;20572;-89
2022/10/24 02:08:36;;;;;;;9.63;2.90;;;;;;;16.58;93.97;97773.13;5188604;22;20650;-90
2022/10/24 02:10:42;;;;;;;6.60;2.70;;;;;;;16.57;93.60;97779.38;5164096;23;20580;-91
2022/10/24 02:12:49;;;;;;;7.07;2.80;;;;;;;16.56;93.77;97786.44;5163602;23;20638;-90
2022/10/24 02:14:55;;;;;;;10.43;1.97;;;;;;;16.61;92.13;97788.63;5188739;22;20643;-90
2022/10/24 02:16:58;;;;;;;6.33;2.30;;;;;;;16.68;92.09;97792.31;5188211;22;20575;-90
2022/10/24 02:19:01;;;;;;;6.57;2.20;;;;;;;16.77;91.28;97794.06;5188078;22;20606;-90
2022/10/24 02:21:14;;;;;;;4.53;1.97;;;;;;;16.86;89.89;97793.16;5163958;23;20675;-91
2022/10/24 02:23:21;;;;;;;6.30;1.87;;;;;;;16.96;89.58;97804.44;5189138;22;20610;-89
2022/10/24 02:25:27;;;;;;;6.70;2.30;;;;;;;16.96;90.50;97794.75;5162841;23;20706;-89
2022/10/24 02:27:34;;;;;;;9.37;2.83;;;;;;;16.90;91.55;97798.00;5189001;22;20590;-88
2022/10/24 02:29:41;;;;;;;4.80;2.10;;;;;;;16.83;91.96;97802.19;5187531;22;20965;-89
2022/10/24 02:31:49;;;;;;;9.27;2.90;;;;;;;16.78;91.55;97795.69;5189150;22;20579;-90
2022/10/24 02:33:53;;;;;;;6.40;2.40;;;;;;;16.74;91.59;97800.44;5189041;22;20570;-90
2022/10/24 02:35:56;;;;;;;6.70;2.37;;;;;;;16.76;90.86;97795.03;5163802;23;20580;-88
2022/10/24 02:38:06;;;;;;;10.03;2.17;;;;;;;16.79;91.26;97792.91;5188111;22;21195;-90
2022/10/24 02:40:10;;;;;;;6.10;2.17;;;;;;;16.81;89.89;97785.72;5188506;22;21243;-90
2022/10/24 02:42:15;;;;;;;5.27;1.97;;;;;;;16.79;89.62;97784.19;5163207;23;20573;-88
2022/10/24 02:44:19;;;;;;;8.33;2.80;;;;;;;16.80;90.67;97784.03;5187905;22;20589;-89
2022/10/24 02:46:22;;;;;;;12.40;2.50;;;;;;;16.79;90.57;97782.38;5163200;23;20583;-89
2022/10/24 02:48:28;;;;;;;7.07;1.63;;;;;;;16.80;89.90;97783.22;5188717;22;20681;-89
2022/10/24 02:50:32;;;;;;;7.00;2.30;;;;;;;16.80;89.98;97770.88;5162894;23;20576;-88
2022/10/24 02:52:36;;;;;;;3.27;1.67;;;;;;;16.81;90.47;97769.06;5189706;22;20940;-89
2022/10/24 02:54:40;;;;;;;6.87;2.10;;;;;;;16.88;89.54;97764.84;5188618;22;20568;-89
2022/10/24 02:56:47;;;;;;;7.93;2.10;;;;;;;16.92;89.32;97771.50;5163286;23;20659;-88
2022/10/24 02:58:50;;;;;;;6.40;2.07;;;;;;;16.95;89.19;97766.72;5163862;23;20572;-89
2022/10/24 03:00:53;;;;;;;6.53;1.90;;;;;;;17.01;89.45;97758.22;5213998;22;20610;-90
2022/10/24 03:02:56;;;;;;;8.10;2.27;;;;;;;17.05;88.48;97757.75;5214592;22;20591;-89
2022/10/24 03:05:00;;;;;;;7.60;2.10;;;;;;;17.10;88.80;97757.31;5187538;22;20657;-88
2022/10/24 03:07:03;;;;;;;4.90;1.70;;;;;;;17.12;88.99;97752.69;5163107;23;20579;-89
2022/10/24 03:09:06;;;;;;;8.87;2.20;;;;;;;17.16;88.68;97754.06;5187772;22;20613;-89
2022/10/24 03:11:11;;;;;;;3.00;1.77;;;;;;;17.19;88.04;97749.31;5215040;22;20593;-89
2022/10/24 03:13:14;;;;;;;8.33;2.27;;;;;;;17.22;88.81;97759.56;5188317;22;20587;-89
2022/10/24 03:15:16;;;;;;;4.90;1.70;;;;;;;17.25;88.74;97759.25;5163238;23;20586;-89
2022/10/24 03:17:20;;;;;;;7.17;2.10;;;;;;;17.28;87.91;97772.16;5164246;23;20681;-90
2022/10/24 03:19:23;;;;;;;5.37;1.77;;;;;;;17.31;88.35;97778.94;5163133;23;20648;-89
2022/10/24 03:21:26;;;;;;;8.10;2.17;;;;;;;17.31;88.19;97779.75;5188618;22;20572;-89
2022/10/24 03:23:29;;;;;;;4.90;1.93;;;;;;;17.36;87.27;97781.94;5216121;22;20686;-88
2022/10/24 03:25:32;;;;;;;4.97;2.40;;;;;;;17.41;87.39;97791.03;5187573;22;21180;-88
2022/10/24 03:27:37;;;;;;;6.63;2.30;;;;;;;17.46;87.41;97797.50;5188594;22;20585;-89
2022/10/24 03:29:40;;;;;;;8.47;2.63;;;;;;;17.49;88.25;97793.72;5163375;23;20581;-89
2022/10/24 03:31:43;;;;;;;5.63;2.33;;;;;;;17.50;87.31;97804.13;5188465;22;20634;-89
2022/10/24 03:33:46;;;;;;;10.23;2.80;;;;;;;17.53;87.45;97806.44;5163292;23;20578;-90
2022/10/24 03:35:52;;;;;;;8.63;2.40;;;;;;;17.58;87.71;97806.00;5163392;23;20575;-88
2022/10/24 03:37:55;;;;;;;7.90;2.57;;;;;;;17.61;87.80;97795.13;5188962;22;20980;-88
2022/10/24 03:39:58;;;;;;;5.80;2.70;;;;;;;17.63;87.83;97786.06;5186874;22;20615;-88
2022/10/24 03:42:01;;;;;;;8.43;2.40;;;;;;;17.66;87.54;97785.75;5188568;22;20644;-90
2022/10/24 03:44:05;;;;;;;8.13;2.93;;;;;;;17.75;87.43;97799.81;5160459;23;20976;-89
2022/10/24 03:46:08;;;;;;;9.97;2.90;;;;;;;17.77;87.01;97795.22;5212585;22;20556;-89
2022/10/24 03:48:11;;;;;;;7.43;2.67;;;;;;;17.78;87.37;97787.16;5184222;22;20679;-90
2022/10/24 03:50:15;;;;;;;9.10;2.73;;;;;;;17.81;87.53;97784.19;5162478;23;20937;-88
2022/10/24 03:52:18;;;;;;;6.07;2.60;;;;;;;17.84;86.67;97790.97;5187257;22;20583;-90
2022/10/24 03:54:21;;;;;;;9.60;2.80;;;;;;;17.82;87.61;97783.22;5187926;22;20572;-89
2022/10/24 03:56:24;;;;;;;11.43;2.73;;;;;;;17.81;88.18;97784.19;5188035;22;20953;-86
2022/10/24 03:58:27;;;;;;;8.50;2.90;;;;;;;17.81;87.21;97793.94;5215705;22;20570;-88
2022/10/24 04:00:37;;;;;;;5.27;2.10;;;;;;;17.81;87.73;97793.94;5163418;23;20613;-89
2022/10/24 04:02:40;;;;;;;9.57;3.27;;;;;;;17.82;87.71;97804.34;5186436;22;21119;-88
2022/10/24 04:04:45;;;;;;;17.00;11.90;;;;;;;17.86;87.67;97802.19;5186094;22;20637;-89
2022/10/24 04:06:48;;;;;;;9.80;3.53;;;;;;;17.89;87.87;97800.09;5186500;22;21099;-89
2022/10/24 04:08:51;;;;;;;6.80;2.87;;;;;;;17.92;87.87;97805.06;5161048;22;20596;-89
2022/10/24 04:10:54;;;;;;;6.07;2.80;;;;;;;17.93;87.45;97810.16;5185603;22;21148;-90
2022/10/24 04:12:57;;;;;;;8.90;3.57;;;;;;;17.93;87.97;97810.16;5162121;23;20582;-90
2022/10/24 04:15:00;;;;;;;6.57;2.70;;;;;;;17.96;87.76;97803.75;5213072;22;20907;-89
2022/10/24 04:17:08;;;;;;;6.53;3.63;;;;;;;17.97;87.55;97805.41;5184541;22;21405;-89
2022/10/24 04:19:11;;;;;;;5.30;2.40;;;;;;;17.98;87.05;97814.97;5159348;23;20579;-89
2022/10/24 04:21:14;;;;;;;7.97;2.80;;;;;;;17.97;87.68;97806.22;5184758;22;20601;-89
2022/10/24 04:23:24;;;;;;;7.73;3.53;;;;;;;17.96;87.74;97814.31;5160436;23;20626;-90
2022/10/24 04:25:27;;;;;;;9.37;2.50;;;;;;;17.93;87.43;97815.44;5184411;22;20580;-92
2022/10/24 04:27:30;;;;;;;12.37;2.90;;;;;;;17.95;87.20;97808.19;5189434;22;20580;-91
2022/10/24 04:29:36;;;;;;;9.07;3.23;;;;;;;17.95;87.75;97804.72;5189051;22;21115;-90
2022/10/24 04:31:39;;;;;;;12.73;2.90;;;;;;;17.91;87.59;97805.22;5164111;23;20624;-91
2022/10/24 04:33:43;;;;;;;7.30;3.10;;;;;;;17.87;87.38;97799.41;5215386;22;21091;-90
2022/10/24 04:35:47;;;;;;;6.70;2.80;;;;;;;17.83;87.67;97792.81;5188934;22;20872;-89
2022/10/24 04:37:50;;;;;;;13.20;3.20;;;;;;;17.84;87.53;97789.16;5164109;23;20862;-90
2022/10/24 04:39:54;;;;;;;9.80;3.20;;;;;;;17.85;88.11;97790.81;5214208;22;21181;-91
2022/10/24 04:41:57;;;;;;;7.20;2.83;;;;;;;17.85;87.34;97792.66;5189632;22;20630;-90
2022/10/24 04:44:00;;;;;;;6.67;2.47;;;;;;;17.84;88.02;97783.06;5214112;22;20587;-90
2022/10/24 04:46:03;;;;;;;7.40;2.80;;;;;;;17.86;87.92;97789.00;5188551;22;20574;-89
2022/10/24 04:48:06;;;;;;;8.40;3.20;;;;;;;17.85;87.77;97784.72;5163900;23;21133;-91
2022/10/24 04:50:11;;;;;;;9.03;2.90;;;;;;;17.84;88.01;97783.06;5189955;22;20581;-89
2022/10/24 04:52:14;;;;;;;9.70;2.93;;;;;;;17.84;88.43;97778.59;5165692;23;21266;-91
2022/10/24 04:54:17;;;;;;;8.93;2.63;;;;;;;17.84;88.24;97777.78;5216075;22;20634;-91
2022/10/24 04:56:20;;;;;;;13.50;2.70;;;;;;;17.85;88.19;97777.63;5164449;23;20618;-91
2022/10/24 04:58:23;;;;;;;12.50;2.60;;;;;;;17.86;88.24;97779.28;5188815;22;20583;-91
2022/10/24 05:00:26;;;;;;;12.30;3.93;;;;;;;17.86;88.40;97773.16;5165044;23;21046;-90
2022/10/24 05:02:29;;;;;;;6.30;3.00;;;;;;;17.84;87.84;97773.31;5165458;23;20580;-91
2022/10/24 05:04:32;;;;;;;8.67;2.40;;;;;;;17.82;88.16;97764.75;5190165;22;20568;-91
2022/10/24 05:06:37;;;;;;;10.03;2.93;;;;;;;17.83;88.10;97770.84;5165000;23;20590;-91
2022/10/24 05:08:44;;;;;;;7.70;3.20;;;;;;;17.82;87.36;97785.84;5164887;22;20711;-90
2022/10/24 05:10:47;;;;;;;10.10;2.80;;;;;;;17.85;87.13;97795.28;5190557;22;20579;-92
2022/10/24 05:12:50;;;;;;;8.60;2.33;;;;;;;17.86;87.73;97804.84;5164812;23;21232;-91
2022/10/24 05:14:53;;;;;;;8.07;2.87;;;;;;;17.87;86.95;97798.59;5165107;23;20576;-92
2022/10/24 05:16:56;;;;;;;9.60;3.30;;;;;;;17.91;87.22;97799.94;5164624;23;20583;-91
2022/10/24 05:18:59;;;;;;;7.80;2.90;;;;;;;17.92;87.16;97791.88;5190538;22;20987;-91
2022/10/24 05:21:02;;;;;;;9.83;3.43;;;;;;;17.93;87.83;97798.78;5165211;23;20605;-91
2022/10/24 05:23:08;;;;;;;9.83;2.83;;;;;;;17.94;87.17;97795.16;5164197;23;20639;-90
2022/10/24 05:25:11;;;;;;;9.93;3.30;;;;;;;17.93;87.49;97790.84;5188788;22;20611;-91
2022/10/24 05:27:13;;;;;;;5.47;2.17;;;;;;;17.94;87.94;97793.34;5217331;22;20671;-91
2022/10/24 05:29:17;;;;;;;7.63;2.30;;;;;;;17.95;87.73;97781.81;5165236;23;20704;-91
2022/10/24 05:31:20;;;;;;;13.37;3.37;;;;;;;17.96;87.64;97787.91;5164138;23;20584;-91
2022/10/24 05:33:23;;;;;;;10.23;3.10;;;;;;;17.96;88.00;97790.53;5165122;23;20586;-90
2022/10/24 05:35:26;;;;;;;7.60;2.47;;;;;;;17.98;87.69;97780.66;5164243;23;20586;-91
2022/10/24 05:37:29;;;;;;;6.90;2.70;;;;;;;18.01;87.43;97791.75;5190264;22;20581;-91
2022/10/24 05:39:35;;;;;;;11.73;2.70;;;;;;;18.02;87.30;97793.38;5163687;23;20911;-90
2022/10/24 05:41:37;;;;;;;10.13;3.27;;;;;;;18.03;86.39;97799.50;5188654;22;20718;-89
2022/10/24 05:43:47;;;;;;;6.37;2.30;;;;;;;18.11;85.86;97802.16;5163829;23;20584;-92
2022/10/24 05:45:50;;;;;;;7.50;2.20;;;;;;;18.18;84.90;97797.97;5162581;23;20592;-88
2022/10/24 05:47:54;;;;;;;8.17;2.70;;;;;;;18.20;86.63;97802.06;5163850;23;20593;-88
2022/10/24 05:49:57;;;;;;;10.10;2.53;;;;;;;18.22;85.55;97815.13;5216741;22;20558;-89
2022/10/24 05:52:00;;;;;;;7.97;2.50;;;;;;;18.24;86.08;97821.91;5162501;23;20640;-89
2022/10/24 05:54:03;;;;;;;7.70;2.80;;;;;;;18.25;86.19;97820.94;5164038;23;20582;-89
2022/10/24 05:56:09;;;;;;;4.70;2.60;;;;;;;18.27;86.56;97823.41;5188919;22;20624;-90
2022/10/24 05:58:12;;;;;;;11.70;3.47;;;;;;;18.27;86.28;97828.69;5188148;22;20559;-88
2022/10/24 06:00:16;;;;;;;12.70;2.93;;;;;;;18.28;87.44;97828.53;5189168;22;20591;-90
2022/10/24 06:02:20;;;;;;;7.00;2.93;;;;;;;18.25;87.39;97820.94;5189470;22;21211;-90
2022/10/24 06:04:23;;;;;;;9.23;2.90;;;;;;;18.24;87.44;97835.13;5164265;23;20582;-89
2022/10/24 06:06:27;;;;;;;7.30;2.53;;;;;;;18.23;88.13;97837.91;5186919;22;20966;-90
2022/10/24 06:08:29;;;;;;;7.73;3.40;;;;;;;18.21;88.55;97847.81;5216147;22;20658;-88
2022/10/24 06:10:33;;;;;;;8.00;3.50;;;;;;;18.17;89.81;97860.47;5189885;22;21166;-90
2022/10/24 06:12:37;;;;;;;10.13;3.17;;;;;;;18.12;90.81;97851.34;5164664;23;20569;-90
2022/10/24 06:14:40;;;;;;;13.97;3.73;;;;;;;18.05;91.85;97839.75;5189324;22;21108;-90
2022/10/24 06:16:43;;;;;;;10.23;3.17;;;;;;;17.94;92.74;97843.50;5189200;22;20631;-89
2022/10/24 06:18:48;;;;;;;6.30;3.00;;;;;;;17.91;92.95;97871.19;5189804;22;21147;-90
2022/10/24 06:20:51;;;;;;;6.97;3.40;;;;;;;17.85;93.74;97877.91;5188781;22;20599;-89
2022/10/24 06:23:00;;;;;;;17.57;9.90;;;;;;;17.83;94.15;97900.16;5156771;23;20684;-90
2022/10/24 06:25:04;;;;;;;12.73;4.27;;;;;;;17.84;94.79;97922.91;5160774;23;20635;-90
2022/10/24 06:27:07;;;;;;;12.40;4.60;;;;;;;17.81;95.93;97954.91;5189294;22;20577;-92
2022/10/24 06:29:16;;;;;;;11.37;7.53;;;;;;;17.73;96.17;97945.09;5163710;23;20584;-91
2022/10/24 06:31:19;;;;;;;12.90;3.77;;;;;;;17.72;97.56;97939.97;5216692;22;20570;-91
2022/10/24 06:33:22;;;;;;;9.77;4.30;;;;;;;17.64;97.80;97950.47;5189789;22;21072;-91
2022/10/24 06:35:25;;;;;;;11.00;4.87;;;;;;;17.59;98.68;97939.50;5216180;22;20575;-91
2022/10/24 06:37:29;;;;;;;11.57;6.47;;;;;;;17.57;98.79;97901.91;5164406;23;20885;-92
2022/10/24 06:39:32;;;;;;;11.93;6.10;;;;;;;17.49;99.53;97892.13;5163675;23;20927;-90
2022/10/24 06:41:37;;;;;;;14.00;3.90;;;;;;;17.39;99.98;97892.38;5163976;23;20660;-91
2022/10/24 06:43:48;;;;;;;8.23;3.70;;;;;;;17.29;100.00;97894.25;5162549;23;20583;-91
2022/10/24 06:45:52;;;;;;;7.97;3.97;;;;;;;17.27;100.00;97898.84;5214671;22;20628;-90
2022/10/24 06:47:55;;;;;;;8.87;3.37;;;;;;;17.26;100.00;97899.81;5188874;22;20574;-91
2022/10/24 06:49:58;;;;;;;7.13;3.07;;;;;;;17.22;100.00;97915.09;5163220;23;20560;-88
2022/10/24 06:52:02;;;;;;;11.50;3.20;;;;;;;17.21;100.00;97920.53;5161362;23;20588;-91
2022/10/24 06:54:05;;;;;;;8.03;3.37;;;;;;;17.20;100.00;97918.84;5161214;23;20585;-90
2022/10/24 06:56:08;;;;;;;15.60;3.73;;;;;;;17.21;100.00;97923.16;5188799;22;20580;-93
2022/10/24 06:58:11;;;;;;;11.77;3.70;;;;;;;17.20;100.00;97913.56;5162580;23;20590;-92
2022/10/24 07:00:15;;;;;;;17.73;7.70;;;;;;;17.23;100.00;97913.28;5162746;23;20581;-92
2022/10/24 07:02:19;;;;;;;11.20;6.03;;;;;;;17.19;100.00;97906.66;5162819;23;20624;-91
2022/10/24 07:04:23;;;;;;;12.70;4.07;;;;;;;17.20;100.00;97910.91;5162975;23;20574;-92
2022/10/24 07:06:28;;;;;;;9.30;4.97;;;;;;;17.17;100.00;97903.31;5164167;23;20659;-91
2022/10/24 07:08:31;;;;;;;14.70;4.40;;;;;;;17.14;100.00;97898.38;5164089;22;21226;-91
2022/10/24 07:10:34;;;;;;;6.17;3.50;;;;;;;17.10;100.00;97905.72;5188989;22;20625;-91
2022/10/24 07:12:37;;;;;;;11.50;3.43;;;;;;;17.09;100.00;97901.44;5163687;23;20578;-92
2022/10/24 07:14:40;;;;;;;8.60;4.93;;;;;;;17.05;100.00;97915.06;5163442;23;20580;-92
2022/10/24 07:16:45;;;;;;;11.23;4.20;;;;;;;17.06;100.00;97916.72;5163698;23;21123;-92
2022/10/24 07:18:49;;;;;;;11.67;4.20;;;;;;;17.05;100.00;97917.72;5188269;22;20616;-91
2022/10/24 07:20:53;;;;;;;13.47;3.97;;;;;;;17.05;100.00;97912.44;5215669;22;20570;-92
2022/10/24 07:22:56;;;;;;;7.00;3.00;;;;;;;17.07;100.00;97926.28;5188392;22;20600;-92
2022/10/24 07:25:00;;;;;;;11.83;3.63;;;;;;;17.10;100.00;97923.34;5163033;23;20610;-90
2022/10/24 07:27:03;;;;;;;8.40;3.30;;;;;;;17.11;100.00;97932.94;5163695;23;20615;-91
2022/10/24 07:29:06;;;;;;;11.43;3.27;;;;;;;17.11;100.00;97943.47;5188740;22;20582;-91
2022/10/24 07:31:12;;;;;;;8.83;3.90;;;;;;;17.11;100.00;97952.19;5215849;22;20668;-90
2022/10/24 07:33:15;;;;;;;7.33;3.53;;;;;;;17.11;100.00;97952.19;5215989;22;20654;-91
2022/10/24 07:35:20;;;;;;;5.80;3.10;;;;;;;17.11;100.00;97940.84;5162136;23;20596;-90
2022/10/24 07:37:23;;;;;;;6.70;3.20;;;;;;;17.09;100.00;97950.69;5163488;23;20614;-90
2022/10/24 07:39:26;;;;;;;8.20;2.87;;;;;;;17.08;100.00;97951.69;5163038;23;20595;-90
2022/10/24 07:41:30;;;;;;;9.30;3.10;;;;;;;17.09;100.00;97937.50;5188377;22;20650;-92
2022/10/24 07:43:34;;;;;;;9.67;3.53;;;;;;;17.03;100.00;97938.09;5164086;23;20670;-90
2022/10/24 07:45:38;;;;;;;8.60;3.30;;;;;;;17.00;100.00;97938.38;5164369;23;20577;-91
2022/10/24 07:47:41;;;;;;;6.50;3.50;;;;;;;16.98;100.00;97938.53;5188362;22;20636;-91
2022/10/24 07:49:45;;;;;;;7.10;3.47;;;;;;;16.97;100.00;97928.13;5189166;22;20973;-92
2022/10/24 07:51:49;;;;;;;7.00;3.60;;;;;;;16.98;100.00;97918.44;5163395;23;20581;-92
2022/10/24 07:53:52;;;;;;;6.23;3.00;;;;;;;16.98;100.00;97909.53;5188423;22;20882;-92
2022/10/24 07:55:55;;;;;;;5.63;3.17;;;;;;;17.01;100.00;97901.34;5215620;22;20641;-90
2022/10/24 07:57:58;;;;;;;7.73;3.40;;;;;;;17.05;100.00;97899.25;5188500;22;20993;-90
2022/10/24 08:00:02;;;;;;;10.30;3.50;;;;;;;17.03;100.00;97891.50;5188658;22;21099;-90
2022/10/24 08:02:14;;;;;;;7.20;3.70;;;;;;;17.02;100.00;97889.84;5189346;22;20657;-91
2022/10/24 08:04:18;;;;;;;8.47;4.00;;;;;;;17.03;100.00;97886.22;5162932;23;20595;-91
2022/10/24 08:06:23;;;;;;;8.43;3.13;;;;;;;17.05;100.00;97894.00;5188255;22;20593;-92
2022/10/24 08:08:28;;;;;;;7.83;3.10;;;;;;;17.07;100.00;97892.03;5216613;22;20621;-93
2022/10/24 08:10:39;;;;;;;6.00;2.70;;;;;;;17.08;100.00;97902.41;5163469;23;20660;-90
2022/10/24 08:12:42;;;;;;;7.83;2.57;;;;;;;17.08;100.00;97909.50;5163983;23;20665;-92
2022/10/24 08:14:46;;;;;;;7.00;2.70;;;;;;;17.10;100.00;97918.91;5163975;23;20670;-92
2022/10/24 08:16:49;;;;;;;7.70;2.83;;;;;;;17.10;100.00;97910.19;5190860;22;21310;-92
2022/10/24 08:18:53;;;;;;;5.97;2.57;;;;;;;17.11;100.00;97917.94;5165940;23;20977;-91
2022/10/24 08:20:58;;;;;;;6.43;2.53;;;;;;;17.15;100.00;97927.19;5163454;23;20580;-90
2022/10/24 08:23:01;;;;;;;5.80;2.90;;;;;;;17.19;100.00;97938.28;5189886;22;20667;-90
2022/10/24 08:25:08;;;;;;;7.00;2.70;;;;;;;17.22;100.00;97944.09;5190429;22;20639;-90
2022/10/24 08:27:11;;;;;;;7.63;2.53;;;;;;;17.25;100.00;97945.63;5191022;22;20722;-91
2022/10/24 08:29:20;;;;;;;6.77;2.80;;;;;;;17.26;100.00;97957.81;5190712;22;20579;-91
2022/10/24 08:31:24;;;;;;;10.33;2.73;;;;;;;17.27;100.00;97954.22;5190373;22;20571;-92
2022/10/24 08:33:27;;;;;;;8.37;2.93;;;;;;;17.28;100.00;97945.34;5165483;23;20607;-91
2022/10/24 08:35:30;;;;;;;8.07;2.77;;;;;;;17.30;100.00;97932.81;5187649;22;21106;-90
2022/10/24 08:37:35;;;;;;;5.87;2.63;;;;;;;17.29;100.00;97934.63;5163721;23;20584;-91
2022/10/24 08:39:40;;;;;;;4.83;2.17;;;;;;;17.31;100.00;97927.41;5163814;23;21213;-91
2022/10/24 08:41:47;;;;;;;6.03;2.27;;;;;;;17.29;100.00;97918.81;5217862;22;20556;-91
2022/10/24 08:43:50;;;;;;;6.93;2.00;;;;;;;17.26;100.00;97903.28;5164040;23;20608;-92
2022/10/24 08:46:00;;;;;;;6.17;2.43;;;;;;;17.23;99.68;97885.13;5189797;22;21104;-90
2022/10/24 08:48:06;;;;;;;9.83;2.83;;;;;;;17.22;99.78;97894.03;5164945;23;20620;-88
2022/10/24 08:50:16;;;;;;;7.70;2.70;;;;;;;17.22;99.29;97896.66;5189468;22;21200;-89
2022/10/24 08:52:26;;;;;;;5.97;2.40;;;;;;;17.26;99.17;97898.03;5216210;22;20558;-91
2022/10/24 08:54:36;;;;;;;6.80;2.80;;;;;;;17.28;99.32;97896.06;5164989;23;20571;-91
2022/10/24 08:56:39;;;;;;;6.00;2.17;;;;;;;17.30;98.97;97891.44;5164922;23;20593;-91
2022/10/24 08:58:45;;;;;;;6.60;2.33;;;;;;;17.33;99.47;97887.69;5165155;23;20580;-90
2022/10/24 09:00:49;;;;;;;7.33;2.57;;;;;;;17.39;100.00;97900.28;5165152;23;20588;-91
2022/10/24 09:02:57;;;;;;;6.53;2.70;;;;;;;17.44;99.42;97896.22;5163346;23;20644;-90
2022/10/24 09:05:03;;;;;;;5.43;2.30;;;;;;;17.49;99.47;97900.03;5189706;22;20575;-90
2022/10/24 09:07:08;;;;;;;7.87;2.37;;;;;;;17.54;99.85;97910.94;5190470;22;20571;-89
2022/10/24 09:09:18;;;;;;;7.20;2.73;;;;;;;17.58;100.00;97922.06;5163487;22;20636;-91
2022/10/24 09:11:26;;;;;;;4.93;2.30;;;;;;;17.58;99.60;97920.22;5189662;22;20577;-91
2022/10/24 09:13:30;;;;;;;7.93;2.63;;;;;;;17.60;99.20;97912.97;5162528;23;20576;-90
2022/10/24 09:15:34;;;;;;;9.70;3.10;;;;;;;17.61;98.90;97914.66;5189149;22;20588;-90
2022/10/24 09:17:41;;;;;;;4.70;2.37;;;;;;;17.65;99.82;97916.03;5215436;22;20575;-91
2022/10/24 09:19:47;;;;;;;4.93;2.37;;;;;;;17.68;99.69;97921.00;5215487;22;20667;-90
2022/10/24 09:21:52;;;;;;;5.30;2.60;;;;;;;17.70;99.17;97923.47;5164743;23;20622;-91
2022/10/24 09:23:56;;;;;;;7.13;2.50;;;;;;;17.70;99.06;97920.84;5164795;23;20659;-89
2022/10/24 09:25:59;;;;;;;8.90;2.50;;;;;;;17.68;98.85;97920.13;5189928;22;20616;-90
2022/10/24 09:28:04;;;;;;;5.00;2.10;;;;;;;17.68;99.14;97931.53;5190017;22;20579;-90
2022/10/24 09:30:15;;;;;;;6.73;2.43;;;;;;;17.68;99.10;97934.19;5216126;22;20575;-90
2022/10/24 09:32:21;;;;;;;5.47;2.43;;;;;;;17.71;99.01;97946.22;5190287;22;20583;-91
2022/10/24 09:34:24;;;;;;;5.27;2.50;;;;;;;17.74;99.47;97951.19;5215499;22;20590;-90
2022/10/24 09:36:29;;;;;;;5.43;2.53;;;;;;;17.77;98.68;97953.53;5215370;22;20552;-91
2022/10/24 09:38:34;;;;;;;7.47;2.30;;;;;;;17.75;98.47;97953.69;5189867;22;21140;-90
2022/10/24 09:40:38;;;;;;;6.53;2.50;;;;;;;17.80;98.46;97959.34;5215207;22;20569;-92
2022/10/24 09:42:41;;;;;;;7.13;2.90;;;;;;;17.82;98.27;97956.56;5190332;22;20586;-91